createdAt,value
2023-04-27T00:00:42.017Z,102011.84
2023-04-27T00:03:46.573Z,102008.34
2023-04-27T00:06:50.649Z,102003.06
2023-04-27T00:09:54.236Z,102003.00
2023-04-27T00:12:57.798Z,102002.91
2023-04-27T00:16:03.985Z,102004.56
2023-04-27T00:19:09.056Z,101996.66
2023-04-27T00:22:12.720Z,101998.28
2023-04-27T00:25:16.522Z,102009.38
2023-04-27T00:28:20.265Z,102009.34
2023-04-27T00:31:25.346Z,102008.41
2023-04-27T00:34:29.005Z,102009.16
2023-04-27T00:37:32.671Z,102012.53
2023-04-27T00:40:36.346Z,102014.19
2023-04-27T00:43:44.713Z,102018.47
2023-04-27T00:46:49.741Z,102016.69
2023-04-27T00:49:53.516Z,102016.59
2023-04-27T00:52:58.172Z,102028.56
2023-04-27T00:56:01.994Z,102025.06
2023-04-27T00:59:05.708Z,102023.31
2023-04-27T01:02:12.646Z,102032.03
2023-04-27T01:05:16.752Z,102037.28
2023-04-27T01:08:20.533Z,102033.88
2023-04-27T01:11:24.109Z,102038.13
2023-04-27T01:14:27.927Z,102046.03
2023-04-27T01:17:32.939Z,102045.13
2023-04-27T01:20:36.576Z,102051.19
2023-04-27T01:23:41.572Z,102046.84
2023-04-27T01:26:45.136Z,102045.63
2023-04-27T01:29:48.934Z,102053.19
2023-04-27T01:32:52.585Z,102057.69
2023-04-27T01:35:56.238Z,102060.16
2023-04-27T01:39:01.214Z,102058.44
2023-04-27T01:42:05.126Z,102062.63
2023-04-27T01:45:10.788Z,102067.91
2023-04-27T01:48:14.500Z,102062.53
2023-04-27T01:51:18.062Z,102067.56
2023-04-27T01:54:23.092Z,102068.44
2023-04-27T01:57:26.929Z,102065.66
2023-04-27T02:00:30.793Z,102062.19
2023-04-27T02:03:34.611Z,102062.13
2023-04-27T02:06:38.369Z,102066.38
2023-04-27T02:09:43.296Z,102063.00
2023-04-27T02:12:46.916Z,102061.13
2023-04-27T02:15:50.655Z,102069.88
2023-04-27T02:18:54.641Z,102071.47
2023-04-27T02:21:58.569Z,102070.66
2023-04-27T02:25:03.637Z,102067.13
2023-04-27T02:28:07.266Z,102070.50
2023-04-27T02:31:12.345Z,102068.00
2023-04-27T02:34:16.001Z,102075.53
2023-04-27T02:37:19.614Z,102069.47
2023-04-27T02:40:24.785Z,102065.06
2023-04-27T02:43:28.569Z,102076.13
2023-04-27T02:46:32.598Z,102074.34
2023-04-27T02:49:38.032Z,102076.75
2023-04-27T02:52:41.815Z,102073.28
2023-04-27T02:55:49.262Z,102072.47
2023-04-27T02:58:52.837Z,102069.00
2023-04-27T03:01:56.399Z,102075.03
2023-04-27T03:05:00.064Z,102072.41
2023-04-27T03:08:05.252Z,102071.38
2023-04-27T03:11:10.603Z,102070.28
2023-04-27T03:14:14.458Z,102072.31
2023-04-27T03:17:18.050Z,102072.19
2023-04-27T03:20:23.090Z,102076.53
2023-04-27T03:23:26.608Z,102076.63
2023-04-27T03:26:31.701Z,102073.13
2023-04-27T03:29:35.333Z,102082.50
2023-04-27T03:32:39.037Z,102074.72
2023-04-27T03:35:42.801Z,102078.00
2023-04-27T03:38:46.351Z,102076.13
2023-04-27T03:41:51.505Z,102074.34
2023-04-27T03:44:55.115Z,102080.25
2023-04-27T03:47:58.786Z,102089.75
2023-04-27T03:51:02.594Z,102086.25
2023-04-27T03:54:06.556Z,102097.28
2023-04-27T03:57:11.588Z,102093.66
2023-04-27T04:00:16.622Z,102091.19
2023-04-27T04:03:20.472Z,102092.09
2023-04-27T04:06:24.145Z,102093.03
2023-04-27T04:09:27.784Z,102088.75
2023-04-27T04:12:32.734Z,102091.25
2023-04-27T04:15:36.453Z,102097.38
2023-04-27T04:18:40.044Z,102096.34
2023-04-27T04:21:43.765Z,102106.03
2023-04-27T04:24:47.382Z,102106.34
2023-04-27T04:27:52.404Z,102105.47
2023-04-27T04:30:56.871Z,102114.81
2023-04-27T04:34:01.516Z,102115.84
2023-04-27T04:37:05.525Z,102115.75
2023-04-27T04:40:10.990Z,102123.66
2023-04-27T04:43:16.192Z,102122.88
2023-04-27T04:46:20.274Z,102116.25
2023-04-27T04:49:24.159Z,102116.59
2023-04-27T04:52:27.946Z,102118.44
2023-04-27T04:55:31.648Z,102116.09
2023-04-27T04:58:36.644Z,102110.25
2023-04-27T05:01:40.324Z,102106.16
2023-04-27T05:04:44.016Z,102113.97
2023-04-27T05:07:47.906Z,102111.59
2023-04-27T05:10:51.911Z,102115.28
2023-04-27T05:13:56.942Z,102107.84
2023-04-27T05:17:00.528Z,102114.06
2023-04-27T05:20:05.357Z,102107.19
2023-04-27T05:23:09.102Z,102122.19
2023-04-27T05:26:16.817Z,102127.69
2023-04-27T05:29:21.962Z,102126.34
2023-04-27T05:32:25.793Z,102133.59
2023-04-27T05:35:29.847Z,102128.97
2023-04-27T05:38:36.178Z,102122.47
2023-04-27T05:41:40.025Z,102125.78
2023-04-27T05:44:45.079Z,102124.88
2023-04-27T05:47:48.778Z,102133.25
2023-04-27T05:51:01.805Z,102121.94
2023-04-27T05:54:05.731Z,102126.06
2023-04-27T05:57:09.876Z,102125.19
2023-04-27T06:00:17.666Z,102123.09
2023-04-27T06:03:21.746Z,102125.00
2023-04-27T06:06:26.367Z,102127.19
2023-04-27T06:09:31.425Z,102128.00
2023-04-27T06:12:34.988Z,102128.06
2023-04-27T06:15:40.185Z,102118.69
2023-04-27T06:18:44.312Z,102124.06
2023-04-27T06:21:48.042Z,102128.47
2023-04-27T06:24:51.629Z,102131.09
2023-04-27T06:27:55.374Z,102126.94
2023-04-27T06:31:00.370Z,102133.94
2023-04-27T06:34:04.579Z,102134.03
2023-04-27T06:37:08.907Z,102130.66
2023-04-27T06:40:13.530Z,102138.56
2023-04-27T06:43:17.332Z,102143.78
2023-04-27T06:46:22.513Z,102140.25
2023-04-27T06:49:26.826Z,102133.44
2023-04-27T06:52:33.381Z,102130.03
2023-04-27T06:55:37.312Z,102124.88
2023-04-27T06:58:41.159Z,102129.25
2023-04-27T07:01:46.309Z,102131.00
2023-04-27T07:04:50.329Z,102128.38
2023-04-27T07:07:54.193Z,102130.13
2023-04-27T07:10:58.090Z,102135.34
2023-04-27T07:14:02.680Z,102123.16
2023-04-27T07:17:07.901Z,102130.13
2023-04-27T07:20:12.003Z,102126.66
2023-04-27T07:23:16.546Z,102127.53
2023-04-27T07:26:20.104Z,102122.28
2023-04-27T07:29:27.425Z,102121.31
2023-04-27T07:32:32.695Z,102125.63
2023-04-27T07:35:36.481Z,102122.09
2023-04-27T07:38:40.093Z,102126.47
2023-04-27T07:41:43.693Z,102125.47
2023-04-27T07:44:47.493Z,102124.56
2023-04-27T07:47:53.529Z,102122.91
2023-04-27T07:50:57.461Z,102124.78
2023-04-27T07:54:02.225Z,102126.50
2023-04-27T07:57:10.522Z,102128.97
2023-04-27T08:00:16.165Z,102127.31
2023-04-27T08:03:22.913Z,102123.53
2023-04-27T08:06:28.767Z,102120.16
2023-04-27T08:09:33.418Z,102119.47
2023-04-27T08:12:37.445Z,102114.88
2023-04-27T08:15:41.752Z,102113.91
2023-04-27T08:18:47.361Z,102106.78
2023-04-27T08:21:51.173Z,102121.97
2023-04-27T08:24:54.880Z,102111.97
2023-04-27T08:27:58.507Z,102111.22
2023-04-27T08:31:02.144Z,102110.09
2023-04-27T08:34:07.552Z,102108.28
2023-04-27T08:37:11.291Z,102102.16
2023-04-27T08:40:15.597Z,102098.81
2023-04-27T08:43:19.224Z,102099.50
2023-04-27T08:46:25.254Z,102098.28
2023-04-27T08:49:30.426Z,102095.19
2023-04-27T08:52:34.213Z,102092.34
2023-04-27T08:55:37.801Z,102093.66
2023-04-27T08:58:41.720Z,102094.28
2023-04-27T09:01:47.109Z,102088.41
2023-04-27T09:04:52.528Z,102093.31
2023-04-27T09:08:05.301Z,102105.94
2023-04-27T09:11:09.128Z,102094.22
2023-04-27T09:14:21.506Z,102090.78
2023-04-27T09:17:28.280Z,102103.94
2023-04-27T09:20:33.737Z,102107.13
2023-04-27T09:23:39.569Z,102101.69
2023-04-27T09:26:43.294Z,102104.19
2023-04-27T09:29:47.016Z,102099.03
2023-04-27T09:32:53.825Z,102092.84
2023-04-27T09:36:00.597Z,102093.41
2023-04-27T09:39:06.121Z,102106.25
2023-04-27T09:42:10.015Z,102107.72
2023-04-27T09:45:14.678Z,102096.19
2023-04-27T09:48:19.631Z,102096.59
2023-04-27T09:51:24.590Z,102094.34
2023-04-27T09:54:33.259Z,102091.19
2023-04-27T09:57:46.345Z,102095.66
2023-04-27T10:01:07.305Z,102096.88
2023-04-27T10:04:39.419Z,102098.88
2023-04-27T10:07:46.754Z,102090.56
2023-04-27T10:10:51.942Z,102092.09
2023-04-27T10:13:56.662Z,102090.34
2023-04-27T10:17:01.159Z,102096.38
2023-04-27T10:20:09.121Z,102095.59
2023-04-27T10:23:25.549Z,102097.09
2023-04-27T10:26:29.937Z,102103.16
2023-04-27T10:29:42.062Z,102099.44
2023-04-27T10:32:54.286Z,102110.63
2023-04-27T10:36:00.524Z,102106.88
2023-04-27T10:39:16.964Z,102110.44
2023-04-27T10:42:29.989Z,102103.88
2023-04-27T10:45:36.008Z,102088.44
2023-04-27T10:48:41.248Z,102095.16
2023-04-27T10:51:44.964Z,102089.69
2023-04-27T10:54:49.969Z,102092.91
2023-04-27T10:57:56.384Z,102088.81
2023-04-27T11:01:00.140Z,102081.88
2023-04-27T11:04:05.501Z,102088.53
2023-04-27T11:07:10.555Z,102087.00
2023-04-27T11:10:19.730Z,102074.88
2023-04-27T11:13:25.920Z,102080.13
2023-04-27T11:16:32.037Z,102069.22
2023-04-27T11:19:47.533Z,102061.44
2023-04-27T11:22:51.452Z,102065.63
2023-04-27T11:25:56.979Z,102054.56
2023-04-27T11:29:05.559Z,102057.88
2023-04-27T11:32:09.481Z,102062.66
2023-04-27T11:35:13.778Z,102057.06
2023-04-27T11:38:18.961Z,102055.63
2023-04-27T11:41:24.414Z,102052.78
2023-04-27T11:44:28.778Z,102047.31
2023-04-27T11:47:34.364Z,102049.25
2023-04-27T11:50:38.504Z,102053.00
2023-04-27T11:53:42.857Z,102046.47
2023-04-27T11:56:47.890Z,102050.19
2023-04-27T11:59:52.025Z,102047.94
2023-04-27T12:02:55.887Z,102048.97
2023-04-27T12:06:16.088Z,102051.38
2023-04-27T12:09:24.124Z,102057.81
2023-04-27T12:12:29.435Z,102059.31
2023-04-27T12:15:33.055Z,102059.75
2023-04-27T12:18:36.675Z,102055.31
2023-04-27T12:21:40.334Z,102055.47
2023-04-27T12:24:44.248Z,102063.06
2023-04-27T12:27:49.444Z,102058.28
2023-04-27T12:30:53.194Z,102052.16
2023-04-27T12:33:56.858Z,102048.06
2023-04-27T12:37:01.111Z,102051.59
2023-04-27T12:40:06.942Z,102054.94
2023-04-27T12:43:12.883Z,102053.78
2023-04-27T12:46:18.260Z,102059.19
2023-04-27T12:49:22.044Z,102057.13
2023-04-27T12:52:25.895Z,102057.78
2023-04-27T12:55:33.673Z,102051.66
2023-04-27T12:58:39.951Z,102054.78
2023-04-27T13:01:43.715Z,102048.38
2023-04-27T13:04:47.713Z,102058.28
2023-04-27T13:07:51.554Z,102056.66
2023-04-27T13:10:55.334Z,102061.78
2023-04-27T13:14:02.124Z,102060.34
2023-04-27T13:17:05.775Z,102048.28
2023-04-27T13:20:11.046Z,102051.09
2023-04-27T13:23:14.798Z,102052.84
2023-04-27T13:26:19.115Z,102044.50
2023-04-27T13:29:25.474Z,102047.72
2023-04-27T13:32:29.315Z,102040.94
2023-04-27T13:35:33.088Z,102034.59
2023-04-27T13:38:37.145Z,102033.50
2023-04-27T13:41:40.846Z,102031.03
2023-04-27T13:44:45.779Z,102030.44
2023-04-27T13:47:49.401Z,102027.72
2023-04-27T13:50:53.030Z,102026.47
2023-04-27T13:53:56.653Z,102019.88
2023-04-27T13:57:00.232Z,102029.59
2023-04-27T14:00:08.065Z,102014.59
2023-04-27T14:03:12.024Z,102008.41
2023-04-27T14:06:16.350Z,102007.53
2023-04-27T14:09:20.424Z,102010.00
2023-04-27T14:12:24.026Z,102005.53
2023-04-27T14:15:29.270Z,102000.25
2023-04-27T14:18:33.457Z,102007.00
2023-04-27T14:21:37.141Z,101998.72
2023-04-27T14:24:41.208Z,102001.63
2023-04-27T14:27:45.670Z,101995.84
2023-04-27T14:30:50.649Z,101988.09
2023-04-27T14:33:54.262Z,101992.06
2023-04-27T14:36:57.975Z,101983.88
2023-04-27T14:40:03.282Z,101986.25
2023-04-27T14:43:06.890Z,101987.31
2023-04-27T14:46:20.231Z,101989.94
2023-04-27T14:49:24.271Z,101989.25
2023-04-27T14:52:29.145Z,101989.97
2023-04-27T14:55:32.784Z,101982.13
2023-04-27T14:58:36.618Z,101977.50
2023-04-27T15:01:41.688Z,101991.09
2023-04-27T15:04:45.431Z,101986.88
2023-04-27T15:07:49.184Z,101984.28
2023-04-27T15:10:53.997Z,101987.19
2023-04-27T15:13:57.694Z,101991.84
2023-04-27T15:17:02.695Z,101987.69
2023-04-27T15:20:08.312Z,101984.00
2023-04-27T15:23:11.985Z,101991.06
2023-04-27T15:26:15.598Z,101978.16
2023-04-27T15:29:19.199Z,101981.97
2023-04-27T15:32:29.860Z,101979.84
2023-04-27T15:35:33.762Z,101984.47
2023-04-27T15:38:37.469Z,101972.84
2023-04-27T15:41:41.678Z,101981.22
2023-04-27T15:44:45.277Z,101977.06
2023-04-27T15:47:50.289Z,101969.53
2023-04-27T15:50:54.059Z,101977.34
2023-04-27T15:53:57.681Z,101979.00
2023-04-27T15:57:04.082Z,101977.03
2023-04-27T16:00:10.468Z,101973.69
2023-04-27T16:03:15.902Z,101981.63
2023-04-27T16:06:19.734Z,101973.00
2023-04-27T16:09:25.748Z,101970.19
2023-04-27T16:12:30.780Z,101968.38
2023-04-27T16:15:34.465Z,101963.03
2023-04-27T16:18:39.512Z,101957.91
2023-04-27T16:21:43.311Z,101962.56
2023-04-27T16:24:47.400Z,101960.41
2023-04-27T16:27:51.054Z,101970.13
2023-04-27T16:30:54.758Z,101965.75
2023-04-27T16:33:59.895Z,101965.88
2023-04-27T16:37:03.522Z,101960.78
2023-04-27T16:40:09.206Z,101960.81
2023-04-27T16:43:12.896Z,101963.56
2023-04-27T16:46:17.195Z,101958.13
2023-04-27T16:49:22.348Z,101954.72
2023-04-27T16:52:26.145Z,101950.38
2023-04-27T16:55:31.285Z,101954.56
2023-04-27T16:58:36.226Z,101951.19
2023-04-27T17:01:40.471Z,101949.50
2023-04-27T17:04:46.043Z,101953.25
2023-04-27T17:07:49.794Z,101956.84
2023-04-27T17:10:54.544Z,101948.97
2023-04-27T17:13:58.163Z,101957.66
2023-04-27T17:17:01.819Z,101955.94
2023-04-27T17:20:09.425Z,101956.72
2023-04-27T17:23:13.069Z,101943.56
2023-04-27T17:26:19.944Z,101935.59
2023-04-27T17:29:23.720Z,101936.53
2023-04-27T17:32:27.348Z,101948.19
2023-04-27T17:35:33.041Z,101949.25
2023-04-27T17:38:37.173Z,101944.03
2023-04-27T17:41:40.872Z,101949.31
2023-04-27T17:44:44.601Z,101949.34
2023-04-27T17:47:50.580Z,101953.72
2023-04-27T17:50:55.798Z,101951.94
2023-04-27T17:53:59.517Z,101950.38
2023-04-27T17:57:03.188Z,101952.19
2023-04-27T18:00:09.356Z,101948.69
2023-04-27T18:03:13.454Z,101954.09
2023-04-27T18:06:19.497Z,101948.00
2023-04-27T18:09:23.581Z,101941.97
2023-04-27T18:12:27.369Z,101941.16
2023-04-27T18:15:35.997Z,101943.03
2023-04-27T18:18:39.634Z,101943.97
2023-04-27T18:21:44.956Z,101943.97
2023-04-27T18:24:48.740Z,101946.66
2023-04-27T18:27:55.559Z,101944.13
2023-04-27T18:30:59.335Z,101956.38
2023-04-27T18:34:03.127Z,101956.34
2023-04-27T18:37:08.149Z,101959.88
2023-04-27T18:40:13.590Z,101956.47
2023-04-27T18:43:17.262Z,101954.78
2023-04-27T18:46:21.189Z,101965.25
2023-04-27T18:49:24.983Z,101960.13
2023-04-27T18:52:30.156Z,101957.50
2023-04-27T18:55:34.014Z,101960.16
2023-04-27T18:58:37.974Z,101968.91
2023-04-27T19:01:41.865Z,101972.41
2023-04-27T19:04:52.951Z,101963.72
2023-04-27T19:08:02.198Z,101973.34
2023-04-27T19:11:05.841Z,101970.78
2023-04-27T19:14:09.505Z,101965.53
2023-04-27T19:17:13.121Z,101962.09
2023-04-27T19:20:16.755Z,101965.59
2023-04-27T19:23:21.944Z,101971.75
2023-04-27T19:26:26.291Z,101970.91
2023-04-27T19:29:31.429Z,101965.69
2023-04-27T19:32:35.319Z,101961.34
2023-04-27T19:35:39.214Z,101961.38
2023-04-27T19:38:44.288Z,101969.19
2023-04-27T19:41:47.919Z,101970.09
2023-04-27T19:44:51.521Z,101967.50
2023-04-27T19:47:55.665Z,101970.97
2023-04-27T19:50:59.339Z,101968.38
2023-04-27T19:54:04.489Z,101968.41
2023-04-27T19:57:08.074Z,101970.97
2023-04-27T20:00:13.269Z,101972.72
2023-04-27T20:03:17.150Z,101970.13
2023-04-27T20:06:21.770Z,101968.38
2023-04-27T20:09:26.839Z,101970.13
2023-04-27T20:15:38.872Z,101965.78
2023-04-27T20:18:45.310Z,101973.63
2023-04-27T20:21:49.051Z,101967.50
2023-04-27T20:24:59.070Z,101967.50
2023-04-27T20:28:02.915Z,101969.25
2023-04-27T20:31:07.083Z,101964.91
2023-04-27T20:34:11.361Z,101963.16
2023-04-27T20:37:17.340Z,101957.09
2023-04-27T20:40:22.939Z,101950.13
2023-04-27T20:43:27.411Z,101957.09
2023-04-27T20:46:34.250Z,101955.34
2023-04-27T20:49:38.020Z,101944.94
2023-04-27T20:52:41.792Z,101943.19
2023-04-27T20:55:47.412Z,101944.94
2023-04-27T20:58:51.050Z,101940.59
2023-04-27T21:01:54.815Z,101939.66
2023-04-27T21:04:58.614Z,101948.34
2023-04-27T21:08:02.353Z,101944.03
2023-04-27T21:11:07.751Z,101950.09
2023-04-27T21:14:11.344Z,101944.91
2023-04-27T21:17:15.334Z,101938.78
2023-04-27T21:20:19.347Z,101942.25
2023-04-27T21:23:23.057Z,101940.53
2023-04-27T21:26:28.035Z,101937.91
2023-04-27T21:29:31.686Z,101937.06
2023-04-27T21:32:35.285Z,101932.72
2023-04-27T21:35:38.805Z,101928.34
2023-04-27T21:38:42.376Z,101922.28
2023-04-27T21:41:47.302Z,101913.59
2023-04-27T21:44:50.925Z,101920.50
2023-04-27T21:47:54.737Z,101916.16
2023-04-27T21:50:58.306Z,101917.91
2023-04-27T21:54:02.249Z,101912.69
2023-04-27T21:57:07.480Z,101915.28
2023-04-27T22:00:14.603Z,101916.13
2023-04-27T22:03:18.358Z,101913.53
2023-04-27T22:06:22.076Z,101923.06
2023-04-27T22:09:25.677Z,101928.25
2023-04-27T22:12:30.733Z,101919.53
2023-04-27T22:15:34.853Z,101917.78
2023-04-27T22:18:38.963Z,101917.78
2023-04-27T22:21:42.578Z,101911.69
2023-04-27T22:24:46.441Z,101905.56
2023-04-27T22:27:51.496Z,101902.97
2023-04-27T22:30:56.707Z,101904.69
2023-04-27T22:34:00.539Z,101894.25
2023-04-27T22:37:04.437Z,101903.78
2023-04-27T22:40:10.294Z,101905.50
2023-04-27T22:43:15.433Z,101898.53
2023-04-27T22:46:19.047Z,101888.97
2023-04-27T22:49:22.986Z,101891.56
2023-04-27T22:52:26.864Z,101886.34
2023-04-27T22:55:30.799Z,101888.94
2023-04-27T22:58:36.693Z,101883.69
2023-04-27T23:01:40.622Z,101879.34
2023-04-27T23:04:44.574Z,101889.72
2023-04-27T23:07:48.125Z,101877.56
2023-04-27T23:10:53.243Z,101875.84
2023-04-27T23:13:58.932Z,101872.34
2023-04-27T23:17:02.883Z,101870.59
2023-04-27T23:20:24.095Z,101858.44
2023-04-27T23:23:30.973Z,101864.47
2023-04-27T23:26:34.642Z,101854.06
2023-04-27T23:29:39.897Z,101863.59
2023-04-27T23:32:43.610Z,101851.44
2023-04-27T23:35:47.178Z,101852.28
2023-04-27T23:38:51.366Z,101842.75
2023-04-27T23:41:55.172Z,101844.47
2023-04-27T23:45:00.391Z,101840.13
2023-04-27T23:48:04.077Z,101833.16
2023-04-27T23:51:08.078Z,101830.53
2023-04-27T23:54:11.614Z,101828.78
2023-04-27T23:57:16.986Z,101827.91
